sensor_id;sensor_type;location;lat;lon;timestamp;P1;durP1;ratioP1;P2;durP2;ratioP2
38797;SDS011;24546;52.240;16.826;2022-12-18T00:00:04;65.45;;;22.60;;
38797;SDS011;24546;52.240;16.826;2022-12-18T00:05:14;64.78;;;23.83;;
38797;SDS011;24546;52.240;16.826;2022-12-18T00:10:14;64.45;;;24.38;;
38797;SDS011;24546;52.240;16.826;2022-12-18T00:15:17;63.35;;;25.15;;
38797;SDS011;24546;52.240;16.826;2022-12-18T00:20:17;52.92;;;20.90;;
38797;SDS011;24546;52.240;16.826;2022-12-18T00:25:25;52.72;;;20.50;;
38797;SDS011;24546;52.240;16.826;2022-12-18T00:30:26;50.47;;;20.42;;
38797;SDS011;24546;52.240;16.826;2022-12-18T00:35:27;53.70;;;21.27;;
38797;SDS011;24546;52.240;16.826;2022-12-18T00:40:28;61.78;;;21.23;;
38797;SDS011;24546;52.240;16.826;2022-12-18T00:45:29;56.47;;;20.88;;
38797;SDS011;24546;52.240;16.826;2022-12-18T00:50:31;53.95;;;21.67;;
38797;SDS011;24546;52.240;16.826;2022-12-18T00:55:34;55.35;;;22.17;;
38797;SDS011;24546;52.240;16.826;2022-12-18T01:00:35;50.60;;;19.90;;
38797;SDS011;24546;52.240;16.826;2022-12-18T01:05:38;52.28;;;21.23;;
38797;SDS011;24546;52.240;16.826;2022-12-18T01:10:40;54.50;;;21.55;;
38797;SDS011;24546;52.240;16.826;2022-12-18T01:15:47;55.45;;;20.98;;
38797;SDS011;24546;52.240;16.826;2022-12-18T01:20:50;55.15;;;23.30;;
38797;SDS011;24546;52.240;16.826;2022-12-18T01:25:51;55.50;;;21.58;;
38797;SDS011;24546;52.240;16.826;2022-12-18T01:30:52;56.53;;;22.30;;
38797;SDS011;24546;52.240;16.826;2022-12-18T01:35:55;55.55;;;21.65;;
38797;SDS011;24546;52.240;16.826;2022-12-18T01:40:59;60.97;;;22.92;;
38797;SDS011;24546;52.240;16.826;2022-12-18T01:46:01;58.77;;;23.20;;
38797;SDS011;24546;52.240;16.826;2022-12-18T01:51:04;60.78;;;25.45;;
38797;SDS011;24546;52.240;16.826;2022-12-18T01:56:08;74.45;;;25.13;;
38797;SDS011;24546;52.240;16.826;2022-12-18T02:01:12;75.85;;;27.38;;
38797;SDS011;24546;52.240;16.826;2022-12-18T02:06:18;70.22;;;25.67;;
38797;SDS011;24546;52.240;16.826;2022-12-18T02:11:28;75.95;;;26.13;;
38797;SDS011;24546;52.240;16.826;2022-12-18T02:16:52;75.45;;;28.52;;
38797;SDS011;24546;52.240;16.826;2022-12-18T02:22:07;79.50;;;27.80;;
38797;SDS011;24546;52.240;16.826;2022-12-18T02:27:36;70.30;;;23.23;;
38797;SDS011;24546;52.240;16.826;2022-12-18T02:32:40;85.38;;;27.75;;
38797;SDS011;24546;52.240;16.826;2022-12-18T02:37:43;76.72;;;28.00;;
38797;SDS011;24546;52.240;16.826;2022-12-18T02:42:47;74.35;;;27.85;;
38797;SDS011;24546;52.240;16.826;2022-12-18T02:47:50;68.30;;;24.02;;
38797;SDS011;24546;52.240;16.826;2022-12-18T03:08:49;73.30;;;28.20;;
38797;SDS011;24546;52.240;16.826;2022-12-18T03:13:55;65.68;;;24.48;;
38797;SDS011;24546;52.240;16.826;2022-12-18T03:19:03;79.65;;;26.30;;
38797;SDS011;24546;52.240;16.826;2022-12-18T03:24:10;71.10;;;27.52;;
38797;SDS011;24546;52.240;16.826;2022-12-18T03:29:13;82.78;;;26.92;;
38797;SDS011;24546;52.240;16.826;2022-12-18T03:34:21;72.45;;;27.20;;
38797;SDS011;24546;52.240;16.826;2022-12-18T03:39:27;72.65;;;26.10;;
38797;SDS011;24546;52.240;16.826;2022-12-18T03:55:09;59.83;;;22.00;;
38797;SDS011;24546;52.240;16.826;2022-12-18T04:00:12;70.05;;;24.90;;
38797;SDS011;24546;52.240;16.826;2022-12-18T04:05:26;65.18;;;22.42;;
38797;SDS011;24546;52.240;16.826;2022-12-18T04:10:29;70.13;;;24.05;;
38797;SDS011;24546;52.240;16.826;2022-12-18T04:15:32;64.10;;;21.38;;
38797;SDS011;24546;52.240;16.826;2022-12-18T04:20:37;64.57;;;21.63;;
38797;SDS011;24546;52.240;16.826;2022-12-18T04:25:37;71.95;;;26.30;;
38797;SDS011;24546;52.240;16.826;2022-12-18T04:30:42;72.80;;;23.27;;
38797;SDS011;24546;52.240;16.826;2022-12-18T04:35:43;66.45;;;24.88;;
38797;SDS011;24546;52.240;16.826;2022-12-18T04:40:44;115.30;;;25.73;;
38797;SDS011;24546;52.240;16.826;2022-12-18T04:46:00;77.25;;;24.77;;
38797;SDS011;24546;52.240;16.826;2022-12-18T04:51:05;94.68;;;29.02;;
38797;SDS011;24546;52.240;16.826;2022-12-18T04:56:08;97.63;;;28.92;;
38797;SDS011;24546;52.240;16.826;2022-12-18T05:01:11;87.47;;;30.65;;
38797;SDS011;24546;52.240;16.826;2022-12-18T05:06:13;89.40;;;27.58;;
38797;SDS011;24546;52.240;16.826;2022-12-18T05:11:15;87.85;;;29.05;;
38797;SDS011;24546;52.240;16.826;2022-12-18T05:16:16;89.07;;;28.83;;
38797;SDS011;24546;52.240;16.826;2022-12-18T05:21:16;82.72;;;28.88;;
38797;SDS011;24546;52.240;16.826;2022-12-18T05:26:17;80.25;;;28.48;;
38797;SDS011;24546;52.240;16.826;2022-12-18T05:31:18;81.38;;;29.60;;
38797;SDS011;24546;52.240;16.826;2022-12-18T05:36:19;93.35;;;32.70;;
38797;SDS011;24546;52.240;16.826;2022-12-18T05:41:20;95.20;;;35.38;;
38797;SDS011;24546;52.240;16.826;2022-12-18T05:46:21;90.20;;;31.95;;
38797;SDS011;24546;52.240;16.826;2022-12-18T05:51:22;89.90;;;33.05;;
38797;SDS011;24546;52.240;16.826;2022-12-18T05:56:23;102.22;;;35.95;;
38797;SDS011;24546;52.240;16.826;2022-12-18T06:01:25;97.72;;;32.90;;
38797;SDS011;24546;52.240;16.826;2022-12-18T06:06:27;94.10;;;30.80;;
38797;SDS011;24546;52.240;16.826;2022-12-18T06:11:28;86.43;;;29.67;;
38797;SDS011;24546;52.240;16.826;2022-12-18T06:16:30;93.85;;;32.20;;
38797;SDS011;24546;52.240;16.826;2022-12-18T06:21:31;93.20;;;31.88;;
38797;SDS011;24546;52.240;16.826;2022-12-18T06:26:33;92.32;;;32.10;;
38797;SDS011;24546;52.240;16.826;2022-12-18T06:31:34;86.13;;;31.27;;
38797;SDS011;24546;52.240;16.826;2022-12-18T06:36:35;91.90;;;33.58;;
38797;SDS011;24546;52.240;16.826;2022-12-18T06:41:35;88.85;;;29.58;;
38797;SDS011;24546;52.240;16.826;2022-12-18T06:46:36;80.88;;;26.73;;
38797;SDS011;24546;52.240;16.826;2022-12-18T06:51:38;84.45;;;29.30;;
38797;SDS011;24546;52.240;16.826;2022-12-18T06:56:39;74.75;;;27.40;;
38797;SDS011;24546;52.240;16.826;2022-12-18T07:01:40;82.82;;;27.63;;
38797;SDS011;24546;52.240;16.826;2022-12-18T07:06:41;76.38;;;29.77;;
38797;SDS011;24546;52.240;16.826;2022-12-18T07:11:41;63.60;;;25.23;;
38797;SDS011;24546;52.240;16.826;2022-12-18T07:16:43;70.88;;;25.63;;
38797;SDS011;24546;52.240;16.826;2022-12-18T07:21:44;69.78;;;23.95;;
38797;SDS011;24546;52.240;16.826;2022-12-18T07:26:48;69.25;;;26.15;;
38797;SDS011;24546;52.240;16.826;2022-12-18T07:31:48;61.50;;;24.27;;
38797;SDS011;24546;52.240;16.826;2022-12-18T07:36:49;69.25;;;25.20;;
38797;SDS011;24546;52.240;16.826;2022-12-18T07:41:50;77.13;;;26.45;;
38797;SDS011;24546;52.240;16.826;2022-12-18T07:47:10;76.05;;;25.65;;
38797;SDS011;24546;52.240;16.826;2022-12-18T07:52:10;68.82;;;27.25;;
38797;SDS011;24546;52.240;16.826;2022-12-18T07:57:12;77.53;;;30.27;;
38797;SDS011;24546;52.240;16.826;2022-12-18T08:02:14;83.18;;;29.33;;
38797;SDS011;24546;52.240;16.826;2022-12-18T08:07:15;78.03;;;30.77;;
38797;SDS011;24546;52.240;16.826;2022-12-18T08:12:16;73.65;;;29.92;;
38797;SDS011;24546;52.240;16.826;2022-12-18T08:17:17;79.72;;;32.35;;
38797;SDS011;24546;52.240;16.826;2022-12-18T08:22:19;79.78;;;29.52;;
38797;SDS011;24546;52.240;16.826;2022-12-18T08:27:19;84.95;;;30.80;;
38797;SDS011;24546;52.240;16.826;2022-12-18T08:32:20;76.53;;;31.15;;
38797;SDS011;24546;52.240;16.826;2022-12-18T08:37:21;86.80;;;33.70;;
38797;SDS011;24546;52.240;16.826;2022-12-18T08:42:22;89.15;;;33.42;;
38797;SDS011;24546;52.240;16.826;2022-12-18T08:47:41;92.30;;;34.92;;
38797;SDS011;24546;52.240;16.826;2022-12-18T08:52:42;80.32;;;33.40;;
38797;SDS011;24546;52.240;16.826;2022-12-18T08:57:42;79.90;;;30.88;;
38797;SDS011;24546;52.240;16.826;2022-12-18T09:02:43;79.35;;;32.15;;
38797;SDS011;24546;52.240;16.826;2022-12-18T09:07:44;62.47;;;27.08;;
38797;SDS011;24546;52.240;16.826;2022-12-18T09:12:45;53.58;;;22.30;;
38797;SDS011;24546;52.240;16.826;2022-12-18T09:17:46;70.95;;;26.10;;
38797;SDS011;24546;52.240;16.826;2022-12-18T09:22:48;56.15;;;24.77;;
38797;SDS011;24546;52.240;16.826;2022-12-18T09:27:48;58.65;;;24.83;;
38797;SDS011;24546;52.240;16.826;2022-12-18T09:32:49;56.45;;;25.88;;
38797;SDS011;24546;52.240;16.826;2022-12-18T09:37:50;65.72;;;27.77;;
38797;SDS011;24546;52.240;16.826;2022-12-18T09:42:52;59.15;;;26.00;;
38797;SDS011;24546;52.240;16.826;2022-12-18T09:47:57;64.40;;;26.38;;
38797;SDS011;24546;52.240;16.826;2022-12-18T09:53:04;61.05;;;28.55;;
38797;SDS011;24546;52.240;16.826;2022-12-18T10:03:17;63.13;;;26.00;;
38797;SDS011;24546;52.240;16.826;2022-12-18T10:14:53;55.60;;;24.40;;
38797;SDS011;24546;52.240;16.826;2022-12-18T10:30:16;46.90;;;22.40;;
38797;SDS011;24546;52.240;16.826;2022-12-18T10:35:23;57.00;;;25.15;;
38797;SDS011;24546;52.240;16.826;2022-12-18T10:40:26;56.17;;;26.30;;
38797;SDS011;24546;52.240;16.826;2022-12-18T10:45:27;62.10;;;26.23;;
38797;SDS011;24546;52.240;16.826;2022-12-18T10:50:29;52.38;;;23.65;;
38797;SDS011;24546;52.240;16.826;2022-12-18T10:55:33;57.40;;;27.50;;
38797;SDS011;24546;52.240;16.826;2022-12-18T11:00:37;54.75;;;27.02;;
38797;SDS011;24546;52.240;16.826;2022-12-18T11:05:38;54.00;;;24.95;;
38797;SDS011;24546;52.240;16.826;2022-12-18T11:10:39;50.50;;;23.40;;
38797;SDS011;24546;52.240;16.826;2022-12-18T11:15:47;55.17;;;24.88;;
38797;SDS011;24546;52.240;16.826;2022-12-18T11:20:51;54.65;;;23.63;;
38797;SDS011;24546;52.240;16.826;2022-12-18T11:25:59;58.13;;;25.85;;
38797;SDS011;24546;52.240;16.826;2022-12-18T11:36:18;47.97;;;23.50;;
38797;SDS011;24546;52.240;16.826;2022-12-18T11:41:30;58.25;;;26.17;;
38797;SDS011;24546;52.240;16.826;2022-12-18T11:52:23;46.13;;;23.17;;
38797;SDS011;24546;52.240;16.826;2022-12-18T11:57:31;51.17;;;22.80;;
38797;SDS011;24546;52.240;16.826;2022-12-18T12:08:14;49.45;;;23.95;;
38797;SDS011;24546;52.240;16.826;2022-12-18T12:35:14;59.22;;;25.00;;
38797;SDS011;24546;52.240;16.826;2022-12-18T12:40:30;55.13;;;25.17;;
38797;SDS011;24546;52.240;16.826;2022-12-18T12:45:54;59.07;;;28.87;;
38797;SDS011;24546;52.240;16.826;2022-12-18T12:51:01;61.78;;;27.65;;
38797;SDS011;24546;52.240;16.826;2022-12-18T12:56:08;65.82;;;29.20;;
38797;SDS011;24546;52.240;16.826;2022-12-18T13:11:37;68.68;;;32.53;;
38797;SDS011;24546;52.240;16.826;2022-12-18T13:17:22;73.65;;;31.50;;
38797;SDS011;24546;52.240;16.826;2022-12-18T13:22:37;69.97;;;33.63;;
38797;SDS011;24546;52.240;16.826;2022-12-18T13:32:45;69.03;;;31.02;;
38797;SDS011;24546;52.240;16.826;2022-12-18T13:37:53;79.53;;;33.17;;
38797;SDS011;24546;52.240;16.826;2022-12-18T13:42:55;75.93;;;33.80;;
38797;SDS011;24546;52.240;16.826;2022-12-18T13:48:24;75.40;;;34.55;;
38797;SDS011;24546;52.240;16.826;2022-12-18T13:53:30;77.57;;;33.03;;
38797;SDS011;24546;52.240;16.826;2022-12-18T13:58:34;70.60;;;33.38;;
38797;SDS011;24546;52.240;16.826;2022-12-18T14:03:35;78.95;;;35.30;;
38797;SDS011;24546;52.240;16.826;2022-12-18T14:08:39;78.22;;;36.00;;
38797;SDS011;24546;52.240;16.826;2022-12-18T14:13:42;89.47;;;38.63;;
38797;SDS011;24546;52.240;16.826;2022-12-18T14:18:45;80.35;;;37.45;;
38797;SDS011;24546;52.240;16.826;2022-12-18T14:23:47;96.13;;;42.67;;
38797;SDS011;24546;52.240;16.826;2022-12-18T14:28:48;77.65;;;34.90;;
38797;SDS011;24546;52.240;16.826;2022-12-18T14:33:49;76.63;;;30.98;;
38797;SDS011;24546;52.240;16.826;2022-12-18T14:38:52;78.63;;;34.90;;
38797;SDS011;24546;52.240;16.826;2022-12-18T14:43:54;90.97;;;38.92;;
38797;SDS011;24546;52.240;16.826;2022-12-18T14:54:20;85.00;;;36.42;;
38797;SDS011;24546;52.240;16.826;2022-12-18T14:59:23;87.30;;;39.60;;
38797;SDS011;24546;52.240;16.826;2022-12-18T15:04:30;88.88;;;37.92;;
38797;SDS011;24546;52.240;16.826;2022-12-18T15:09:33;78.65;;;33.97;;
38797;SDS011;24546;52.240;16.826;2022-12-18T15:19:37;91.53;;;38.00;;
38797;SDS011;24546;52.240;16.826;2022-12-18T15:24:40;89.20;;;40.10;;
38797;SDS011;24546;52.240;16.826;2022-12-18T15:29:41;92.43;;;40.42;;
38797;SDS011;24546;52.240;16.826;2022-12-18T15:34:42;79.32;;;34.58;;
38797;SDS011;24546;52.240;16.826;2022-12-18T15:39:43;85.30;;;38.33;;
38797;SDS011;24546;52.240;16.826;2022-12-18T15:44:43;98.57;;;42.28;;
38797;SDS011;24546;52.240;16.826;2022-12-18T15:49:45;93.75;;;41.33;;
38797;SDS011;24546;52.240;16.826;2022-12-18T15:54:45;98.65;;;39.65;;
38797;SDS011;24546;52.240;16.826;2022-12-18T16:00:05;97.80;;;40.90;;
38797;SDS011;24546;52.240;16.826;2022-12-18T16:05:13;94.53;;;40.30;;
38797;SDS011;24546;52.240;16.826;2022-12-18T16:10:17;90.82;;;39.60;;
38797;SDS011;24546;52.240;16.826;2022-12-18T16:15:18;87.20;;;36.63;;
38797;SDS011;24546;52.240;16.826;2022-12-18T16:20:20;98.00;;;39.88;;
38797;SDS011;24546;52.240;16.826;2022-12-18T16:25:25;80.55;;;31.92;;
38797;SDS011;24546;52.240;16.826;2022-12-18T16:30:29;85.00;;;34.10;;
38797;SDS011;24546;52.240;16.826;2022-12-18T16:35:30;76.97;;;34.53;;
38797;SDS011;24546;52.240;16.826;2022-12-18T16:40:32;86.82;;;35.28;;
38797;SDS011;24546;52.240;16.826;2022-12-18T16:45:33;89.20;;;37.75;;
38797;SDS011;24546;52.240;16.826;2022-12-18T16:50:36;82.68;;;35.65;;
38797;SDS011;24546;52.240;16.826;2022-12-18T16:55:37;81.38;;;36.15;;
38797;SDS011;24546;52.240;16.826;2022-12-18T17:00:38;92.32;;;37.03;;
38797;SDS011;24546;52.240;16.826;2022-12-18T17:05:40;87.57;;;34.97;;
38797;SDS011;24546;52.240;16.826;2022-12-18T17:10:41;96.30;;;40.42;;
38797;SDS011;24546;52.240;16.826;2022-12-18T17:15:41;84.88;;;33.92;;
38797;SDS011;24546;52.240;16.826;2022-12-18T17:20:42;98.75;;;39.25;;
38797;SDS011;24546;52.240;16.826;2022-12-18T17:25:43;85.57;;;36.03;;
38797;SDS011;24546;52.240;16.826;2022-12-18T17:30:44;84.90;;;36.50;;
38797;SDS011;24546;52.240;16.826;2022-12-18T17:35:44;89.57;;;38.33;;
38797;SDS011;24546;52.240;16.826;2022-12-18T17:40:45;83.68;;;37.30;;
38797;SDS011;24546;52.240;16.826;2022-12-18T17:45:46;82.70;;;32.20;;
38797;SDS011;24546;52.240;16.826;2022-12-18T17:50:47;94.85;;;41.72;;
38797;SDS011;24546;52.240;16.826;2022-12-18T17:55:54;91.47;;;36.17;;
38797;SDS011;24546;52.240;16.826;2022-12-18T18:00:56;96.10;;;39.45;;
38797;SDS011;24546;52.240;16.826;2022-12-18T18:05:57;88.80;;;38.53;;
38797;SDS011;24546;52.240;16.826;2022-12-18T18:11:02;83.00;;;37.60;;
38797;SDS011;24546;52.240;16.826;2022-12-18T18:21:27;82.97;;;35.53;;
38797;SDS011;24546;52.240;16.826;2022-12-18T18:26:30;90.00;;;35.40;;
38797;SDS011;24546;52.240;16.826;2022-12-18T18:31:32;86.80;;;33.75;;
38797;SDS011;24546;52.240;16.826;2022-12-18T18:36:34;87.22;;;36.15;;
38797;SDS011;24546;52.240;16.826;2022-12-18T18:41:34;85.32;;;35.97;;
38797;SDS011;24546;52.240;16.826;2022-12-18T18:46:35;88.82;;;37.53;;
38797;SDS011;24546;52.240;16.826;2022-12-18T18:51:36;93.88;;;38.25;;
38797;SDS011;24546;52.240;16.826;2022-12-18T18:56:37;98.03;;;37.47;;
38797;SDS011;24546;52.240;16.826;2022-12-18T19:01:38;90.80;;;36.75;;
38797;SDS011;24546;52.240;16.826;2022-12-18T19:06:38;90.93;;;34.75;;
38797;SDS011;24546;52.240;16.826;2022-12-18T19:11:39;95.25;;;37.47;;
38797;SDS011;24546;52.240;16.826;2022-12-18T19:16:59;90.53;;;38.65;;
38797;SDS011;24546;52.240;16.826;2022-12-18T19:22:00;86.50;;;37.00;;
38797;SDS011;24546;52.240;16.826;2022-12-18T19:27:00;84.28;;;34.13;;
38797;SDS011;24546;52.240;16.826;2022-12-18T19:32:01;93.35;;;34.55;;
38797;SDS011;24546;52.240;16.826;2022-12-18T19:37:02;86.80;;;35.97;;
38797;SDS011;24546;52.240;16.826;2022-12-18T19:42:05;89.55;;;35.63;;
38797;SDS011;24546;52.240;16.826;2022-12-18T19:47:06;87.68;;;37.65;;
38797;SDS011;24546;52.240;16.826;2022-12-18T19:52:07;94.53;;;37.15;;
38797;SDS011;24546;52.240;16.826;2022-12-18T19:57:08;95.90;;;39.42;;
38797;SDS011;24546;52.240;16.826;2022-12-18T20:02:13;96.05;;;38.55;;
38797;SDS011;24546;52.240;16.826;2022-12-18T20:07:14;94.75;;;39.00;;
38797;SDS011;24546;52.240;16.826;2022-12-18T20:12:15;89.90;;;38.13;;
38797;SDS011;24546;52.240;16.826;2022-12-18T20:17:16;87.75;;;38.15;;
38797;SDS011;24546;52.240;16.826;2022-12-18T20:22:17;93.63;;;36.33;;
38797;SDS011;24546;52.240;16.826;2022-12-18T20:27:18;97.88;;;40.15;;
38797;SDS011;24546;52.240;16.826;2022-12-18T20:32:19;98.90;;;39.50;;
38797;SDS011;24546;52.240;16.826;2022-12-18T20:37:19;105.43;;;40.65;;
38797;SDS011;24546;52.240;16.826;2022-12-18T20:42:20;111.40;;;42.38;;
38797;SDS011;24546;52.240;16.826;2022-12-18T20:47:21;114.18;;;45.88;;
38797;SDS011;24546;52.240;16.826;2022-12-18T20:52:22;137.05;;;49.08;;
38797;SDS011;24546;52.240;16.826;2022-12-18T20:57:23;108.13;;;43.95;;
38797;SDS011;24546;52.240;16.826;2022-12-18T21:02:24;110.47;;;44.92;;
38797;SDS011;24546;52.240;16.826;2022-12-18T21:07:25;119.25;;;45.65;;
38797;SDS011;24546;52.240;16.826;2022-12-18T21:12:26;103.28;;;43.45;;
38797;SDS011;24546;52.240;16.826;2022-12-18T21:17:30;109.20;;;40.40;;
38797;SDS011;24546;52.240;16.826;2022-12-18T21:22:31;101.22;;;37.15;;
38797;SDS011;24546;52.240;16.826;2022-12-18T21:27:35;109.50;;;39.13;;
38797;SDS011;24546;52.240;16.826;2022-12-18T21:32:36;106.10;;;38.65;;
38797;SDS011;24546;52.240;16.826;2022-12-18T21:37:37;110.20;;;40.63;;
38797;SDS011;24546;52.240;16.826;2022-12-18T21:42:37;109.45;;;42.20;;
38797;SDS011;24546;52.240;16.826;2022-12-18T21:47:57;113.63;;;39.30;;
38797;SDS011;24546;52.240;16.826;2022-12-18T21:52:58;102.63;;;37.40;;
38797;SDS011;24546;52.240;16.826;2022-12-18T21:57:58;101.68;;;38.10;;
38797;SDS011;24546;52.240;16.826;2022-12-18T22:02:59;97.13;;;35.67;;
38797;SDS011;24546;52.240;16.826;2022-12-18T22:08:00;111.15;;;38.05;;
38797;SDS011;24546;52.240;16.826;2022-12-18T22:13:01;108.03;;;38.47;;
38797;SDS011;24546;52.240;16.826;2022-12-18T22:18:02;95.30;;;37.08;;
38797;SDS011;24546;52.240;16.826;2022-12-18T22:23:03;110.05;;;40.80;;
38797;SDS011;24546;52.240;16.826;2022-12-18T22:28:04;114.63;;;43.65;;
38797;SDS011;24546;52.240;16.826;2022-12-18T22:33:23;111.93;;;38.65;;
38797;SDS011;24546;52.240;16.826;2022-12-18T22:38:24;101.35;;;39.38;;
38797;SDS011;24546;52.240;16.826;2022-12-18T22:43:25;108.90;;;40.42;;
38797;SDS011;24546;52.240;16.826;2022-12-18T22:48:26;117.15;;;41.55;;
38797;SDS011;24546;52.240;16.826;2022-12-18T22:53:27;105.90;;;39.40;;
38797;SDS011;24546;52.240;16.826;2022-12-18T22:58:28;127.13;;;45.22;;
38797;SDS011;24546;52.240;16.826;2022-12-18T23:03:30;106.65;;;39.80;;
38797;SDS011;24546;52.240;16.826;2022-12-18T23:08:32;123.53;;;46.47;;
38797;SDS011;24546;52.240;16.826;2022-12-18T23:13:33;119.32;;;47.53;;
38797;SDS011;24546;52.240;16.826;2022-12-18T23:18:34;127.75;;;49.45;;
38797;SDS011;24546;52.240;16.826;2022-12-18T23:23:36;117.13;;;47.67;;
38797;SDS011;24546;52.240;16.826;2022-12-18T23:28:37;126.65;;;48.22;;
38797;SDS011;24546;52.240;16.826;2022-12-18T23:33:38;125.15;;;47.33;;
38797;SDS011;24546;52.240;16.826;2022-12-18T23:38:40;116.07;;;48.00;;
38797;SDS011;24546;52.240;16.826;2022-12-18T23:43:41;131.05;;;47.17;;
38797;SDS011;24546;52.240;16.826;2022-12-18T23:48:42;125.45;;;47.88;;
38797;SDS011;24546;52.240;16.826;2022-12-18T23:53:43;108.03;;;45.55;;
38797;SDS011;24546;52.240;16.826;2022-12-18T23:58:44;106.93;;;44.80;;
